Latest Weather Observations for Sydney Harbour

IDN60901

Issued at 1:51 pm EST Tuesday 28 April 2015 (issued every 10 minutes, with the page automatically refreshed every 10 minutes)

About weather observations | Map of Sydney area stations | Latest observations for Sydney area | Other Formats
Station Details ID: 066196 Name: WEDDING CAKE WEST Lat: -33.84 Lon: 151.26 Height: 6.0 m
Data from the previous 72 hours. | See also: Recent months for locations in New South Wales
Date/Time
EST
Tmp

°C
App
Tmp
°C
Dew
Point
°C
Rel
Hum
%
Delta-T

°C
Wind Press
QNH
hPa
Press
MSL
hPa
Rain
since
9 am
mm
Dir
 
Spd
km/h
Gust
km/h
Spd
kts
Gust
kts
28/01:30pm 17.8 - - - - S 28 39 15 21 - - -
28/01:00pm 17.9 - - - - S 28 39 15 21 - - -
28/12:30pm 17.8 - - - - SSW 30 39 16 21 - - -
28/12:00pm 17.5 - - - - SSW 30 41 16 22 - - -
28/11:30am 17.4 - - - - SSW 32 41 17 22 - - -
28/11:00am 17.2 - - - - SSW 33 43 18 23 - - -
28/10:30am 17.1 - - - - SSW 26 37 14 20 - - -
28/10:00am 15.6 - - - - WSW 17 22 9 12 - - -
28/09:30am 14.6 - - - - WSW 19 22 10 12 - - -
28/09:00am 14.0 - - - - WSW 15 20 8 11 - - -
28/08:30am 13.1 - - - - WSW 17 20 9 11 - - -
28/08:00am 12.8 - - - - W 19 24 10 13 - - -
28/07:30am 12.0 - - - - W 24 30 13 16 - - -
28/07:00am 12.2 - - - - W 24 30 13 16 - - -
28/06:30am 12.4 - - - - W 24 30 13 16 - - -
28/06:00am 12.6 - - - - W 24 30 13 16 - - -
28/05:30am 12.5 - - - - W 26 32 14 17 - - -
28/05:00am 12.8 - - - - W 26 32 14 17 - - -
28/04:30am 12.7 - - - - W 22 26 12 14 - - -
28/04:00am 13.3 - - - - W 24 28 13 15 - - -
28/03:30am 13.4 - - - - W 20 24 11 13 - - -
28/03:00am 13.9 - - - - W 20 26 11 14 - - -
28/02:30am 14.0 - - - - W 22 26 12 14 - - -
28/02:00am 14.1 - - - - WSW 24 28 13 15 - - -
28/01:30am 14.0 - - - - WSW 20 24 11 13 - - -
28/01:00am 14.2 - - - - W 22 28 12 15 - - -
28/12:30am 14.3 - - - - W 20 24 11 13 - - -
28/12:00am 14.7 - - - - W 20 26 11 14 - - -
 
Date/Time
EST
Tmp

°C
App
Tmp
°C
Dew
Point
°C
Rel
Hum
%
Delta-T

°C
Wind Press
QNH
hPa
Press
MSL
hPa
Rain
since
9 am
mm
Dir
 
Spd
km/h
Gust
km/h
Spd
kts
Gust
kts
27/11:30pm 14.7 - - - - W 22 26 12 14 - - -
27/11:00pm 14.7 - - - - W 22 26 12 14 - - -
27/10:30pm 15.0 - - - - W 20 24 11 13 - - -
27/10:00pm 15.4 - - - - W 22 26 12 14 - - -
27/09:30pm 16.1 - - - - W 20 24 11 13 - - -
27/09:00pm 17.6 - - - - SW 17 20 9 11 - - -
27/08:30pm 17.7 - - - - SSW 19 26 10 14 - - -
27/08:00pm 17.5 - - - - S 19 24 10 13 - - -
27/07:30pm 17.4 - - - - S 19 24 10 13 - - -
27/07:00pm 17.3 - - - - S 19 24 10 13 - - -
27/06:30pm 17.4 - - - - S 19 22 10 12 - - -
27/06:00pm 17.3 - - - - S 17 20 9 11 - - -
27/05:30pm 17.4 - - - - S 19 24 10 13 - - -
27/05:00pm 17.5 - - - - S 24 30 13 16 - - -
27/04:30pm 17.6 - - - - S 24 30 13 16 - - -
27/04:00pm 17.8 - - - - S 28 37 15 20 - - -
27/03:30pm 18.0 - - - - SSE 28 33 15 18 - - -
27/03:00pm 18.1 - - - - SSE 28 33 15 18 - - -
27/02:30pm 18.2 - - - - SSE 24 35 13 19 - - -
27/02:00pm 18.0 - - - - S 24 32 13 17 - - -
27/01:30pm 17.4 - - - - SSW 24 33 13 18 - - -
27/01:00pm 17.4 - - - - SSW 26 32 14 17 - - -
27/12:30pm 17.3 - - - - SSW 24 35 13 19 - - -
27/12:00pm 17.3 - - - - SSW 24 32 13 17 - - -
27/11:30am 17.1 - - - - SSW 20 26 11 14 - - -
27/11:00am 16.8 - - - - SW 19 26 10 14 - - -
27/10:30am 16.2 - - - - WSW 19 26 10 14 - - -
27/10:00am 15.7 - - - - WSW 20 24 11 13 - - -
27/09:30am 15.3 - - - - WSW 22 30 12 16 - - -
27/09:00am 15.0 - - - - WSW 24 32 13 17 - - -
27/08:30am 14.6 - - - - WSW 22 28 12 15 - - -
27/08:00am 14.2 - - - - WSW 22 32 12 17 - - -
27/07:30am 14.1 - - - - W 13 19 7 10 - - -
27/07:00am 13.9 - - - - W 17 22 9 12 - - -
27/06:30am 14.4 - - - - WSW 19 26 10 14 - - -
27/06:00am 14.9 - - - - WSW 26 32 14 17 - - -
27/05:30am 15.2 - - - - WSW 28 35 15 19 - - -
27/05:00am 14.9 - - - - W 20 26 11 14 - - -
27/04:30am 14.9 - - - - W 19 24 10 13 - - -
27/04:00am 14.9 - - - - W 20 24 11 13 - - -
27/03:30am 15.7 - - - - WSW 28 33 15 18 - - -
27/03:00am 16.1 - - - - SW 28 33 15 18 - - -
27/02:30am 16.2 - - - - SW 26 32 14 17 - - -
27/02:00am 16.0 - - - - SW 20 26 11 14 - - -
27/01:30am 16.2 - - - - SW 20 24 11 13 - - -
27/01:00am 16.2 - - - - SSW 19 24 10 13 - - -
27/12:30am 16.7 - - - - WSW 15 19 8 10 - - -
27/12:00am 16.7 - - - - WSW 13 17 7 9 - - -
 
Date/Time
EST
Tmp

°C
App
Tmp
°C
Dew
Point
°C
Rel
Hum
%
Delta-T

°C
Wind Press
QNH
hPa
Press
MSL
hPa
Rain
since
9 am
mm
Dir
 
Spd
km/h
Gust
km/h
Spd
kts
Gust
kts
26/11:30pm 16.4 - - - - WSW 13 17 7 9 - - -
26/11:00pm 16.3 - - - - WSW 17 20 9 11 - - -
26/10:30pm 16.2 - - - - W 15 20 8 11 - - -
26/10:00pm 16.4 - - - - W 11 15 6 8 - - -
26/09:30pm 17.2 - - - - SW 17 20 9 11 - - -
26/09:00pm 17.4 - - - - SW 19 22 10 12 - - -
26/08:30pm 17.4 - - - - SW 20 26 11 14 - - -
26/08:00pm 17.3 - - - - SSW 24 28 13 15 - - -
26/07:30pm 17.4 - - - - SSW 26 32 14 17 - - -
26/07:00pm 17.5 - - - - SSW 26 32 14 17 - - -
26/06:30pm 17.8 - - - - SW 22 26 12 14 - - -
26/06:00pm 17.9 - - - - SSW 19 24 10 13 - - -
26/05:30pm 17.7 - - - - SSW 19 26 10 14 - - -
26/05:00pm 17.6 - - - - SSW 19 22 10 12 - - -
26/04:30pm 17.8 - - - - SW 32 43 17 23 - - -
26/04:00pm 17.0 - - - - SW 39 46 21 25 - - -
26/03:30pm 16.8 - - - - SSW 33 43 18 23 - - -
26/03:17pm 16.4 - - - - SSW 37 46 20 25 - - -
26/03:00pm 16.9 - - - - SW 37 46 20 25 - - -
26/02:30pm 16.5 - - - - SW 39 50 21 27 - - -
26/02:00pm 16.3 - - - - SW 43 52 23 28 - - -
26/01:30pm 16.1 - - - - SW 43 52 23 28 - - -
26/01:00pm 16.6 - - - - SW 41 56 22 30 - - -
26/12:30pm 17.3 - - - - SW 37 46 20 25 - - -
26/12:00pm 16.8 - - - - WSW 32 43 17 23 - - -
26/11:30am 16.3 - - - - WSW 28 41 15 22 - - -
26/11:00am 15.9 - - - - WSW 26 35 14 19 - - -
26/10:30am 15.3 - - - - WSW 24 32 13 17 - - -
26/10:00am 14.8 - - - - W 32 44 17 24 - - -
26/09:30am 14.6 - - - - W 28 35 15 19 - - -
26/09:00am 14.5 - - - - W 24 35 13 19 - - -
26/08:30am 14.6 - - - - WSW 28 35 15 19 - - -
26/08:00am 14.6 - - - - WSW 22 30 12 16 - - -
26/07:30am 14.5 - - - - W 26 33 14 18 - - -
26/07:00am 14.2 - - - - W 24 35 13 19 - - -
26/06:30am 13.8 - - - - W 19 26 10 14 - - -
26/06:00am 14.1 - - - - W 24 30 13 16 - - -
26/05:30am 14.3 - - - - W 24 33 13 18 - - -
26/05:00am 14.3 - - - - W 26 35 14 19 - - -
26/04:30am 14.3 - - - - W 24 32 13 17 - - -
26/04:00am 14.6 - - - - W 20 26 11 14 - - -
26/03:30am 14.8 - - - - W 22 32 12 17 - - -
26/03:00am 15.9 - - - - S 28 33 15 18 - - -
26/02:30am 15.1 - - - - S 17 22 9 12 - - -
26/02:00am 14.3 - - - - WNW 32 46 17 25 - - -
26/01:30am 14.2 - - - - WNW 20 32 11 17 - - -
26/01:00am 13.9 - - - - W 15 20 8 11 - - -
26/12:30am 13.9 - - - - WNW 26 37 14 20 - - -
26/12:00am 14.3 - - - - WNW 15 24 8 13 - - -
 
Date/Time
EST
Tmp

°C
App
Tmp
°C
Dew
Point
°C
Rel
Hum
%
Delta-T

°C
Wind Press
QNH
hPa
Press
MSL
hPa
Rain
since
9 am
mm
Dir
 
Spd
km/h
Gust
km/h
Spd
kts
Gust
kts
25/11:30pm 14.3 - - - - W 15 17 8 9 - - -
25/11:00pm 14.7 - - - - WSW 17 22 9 12 - - -
25/10:30pm 15.0 - - - - SSW 24 32 13 17 - - -
25/10:00pm 15.2 - - - - SSW 20 26 11 14 - - -
25/09:30pm 15.8 - - - - SSW 28 43 15 23 - - -
25/09:00pm 16.3 - - - - SW 30 41 16 22 - - -
25/08:30pm 16.6 - - - - SSW 26 35 14 19 - - -
25/08:00pm 17.1 - - - - SW 32 43 17 23 - - -
25/07:30pm 16.3 - - - - WSW 15 26 8 14 - - -
25/07:00pm 17.5 - - - - SSW 11 15 6 8 - - -
25/06:30pm 17.5 - - - - ESE 20 26 11 14 - - -
25/06:00pm 16.5 - - - - ESE 13 20 7 11 - - -
25/05:30pm 14.2 - - - - E 17 24 9 13 - - -
25/05:10pm 13.0 - - - - S 39 61 21 33 - - -
25/05:07pm 12.8 - - - - S 44 61 24 33 - - -
25/05:00pm 13.0 - - - - WSW 50 78 27 42 - - -
25/04:59pm 12.3 - - - - WSW 50 78 27 42 - - -
25/04:54pm 14.8 - - - - SW 37 78 20 42 - - -
25/04:52pm 17.8 - - - - SSW 32 50 17 27 - - -
25/04:48pm 18.3 - - - - SE 20 44 11 24 - - -
25/04:30pm 21.0 - - - - ENE 19 26 10 14 - - -
25/04:00pm 20.9 - - - - ENE 19 20 10 11 - - -
25/03:30pm 21.0 - - - - ENE 19 24 10 13 - - -
25/03:00pm 21.2 - - - - ENE 19 20 10 11 - - -
25/02:30pm 21.2 - - - - ENE 19 20 10 11 - - -
25/02:00pm 21.3 - - - - ENE 17 20 9 11 - - -

Latest Capital City Observations: Canberra | Sydney | Melbourne | Brisbane | Adelaide | Perth | Hobart | Darwin

Other Formats:

Comma delimited format used in spreadsheet applications
http://www.bom.gov.au/fwo/IDN60901/IDN60901.95766.axf

JavaScript Object Notation format (JSON) in row-major order
http://www.bom.gov.au/fwo/IDN60901/IDN60901.95766.json